Latest Weather Observations for Montague Island

IDN60901

Issued at 11:25 pm EST Tuesday 22 July 2014 (issued every 10 minutes, with the page automatically refreshed every 10 minutes)

About weather observations | Map of Canberra area stations | Latest observations for Canberra area | Other Formats
Station Details ID: 069017 Name: MONTAGUE ISLAND LIGHTHOUSE Lat: -36.25 Lon: 150.23 Height: 52.0 m
Data from the previous 72 hours. | See also: Recent months at Montague Island
Date/Time
EST
Tmp

°C
App
Tmp
°C
Dew
Point
°C
Rel
Hum
%
Delta-T

°C
Wind Press
QNH
hPa
Press
MSL
hPa
Rain
since
9 am
mm
Dir
 
Spd
km/h
Gust
km/h
Spd
kts
Gust
kts
22/11:00pm 12.3 7.5 8.8 79 1.7 WSW 24 28 13 15 1024.5 1024.5 0.0
22/10:30pm 12.2 7.4 8.7 79 1.7 SW 24 28 13 15 1024.4 - 0.0
22/10:00pm 12.2 8.6 8.3 77 1.9 WSW 17 24 9 13 1024.3 1024.3 0.0
22/09:30pm 12.6 9.8 8.5 76 2.0 SW 13 17 7 9 1024.2 - 0.0
22/09:00pm 12.9 10.2 8.8 76 2.0 SW 13 19 7 10 1024.3 1024.3 0.0
22/08:30pm 12.9 10.1 8.4 74 2.2 SW 13 17 7 9 1024.3 - 0.0
22/08:00pm 13.1 10.0 7.3 68 2.8 S 13 17 7 9 1024.2 1024.2 0.0
22/07:30pm 13.6 9.7 7.2 65 3.1 S 17 20 9 11 1024.2 - 0.0
22/07:00pm 13.5 10.1 7.7 68 2.8 S 15 20 8 11 1024.3 1024.3 0.0
22/06:30pm 13.6 9.2 7.6 67 3.0 S 20 26 11 14 1024.1 - 0.0
22/06:00pm 13.6 9.5 7.8 68 2.9 S 19 22 10 12 1023.7 1023.7 0.0
22/05:30pm 13.1 8.7 6.7 65 3.1 S 19 24 10 13 1023.5 - 0.0
22/05:00pm 13.3 8.6 6.2 62 3.4 S 20 26 11 14 1023.3 1023.3 0.0
22/04:30pm 13.4 8.7 6.0 61 3.5 S 20 28 11 15 1023.2 - 0.0
22/04:00pm 13.6 9.1 6.9 64 3.2 S 20 28 11 15 1023.1 1023.1 0.0
22/03:30pm 13.8 8.3 5.7 58 3.8 SSE 24 32 13 17 1022.9 - 0.0
22/03:00pm 13.8 9.3 6.2 60 3.6 S 19 24 10 13 1022.9 1022.9 0.0
22/02:30pm 14.0 9.3 5.9 58 3.9 S 20 26 11 14 1022.7 - 0.0
22/02:00pm 14.4 9.9 6.3 58 3.9 S 19 24 10 13 1022.7 1022.7 0.0
22/01:30pm 14.6 10.3 7.2 61 3.6 S 19 22 10 12 1022.8 - 0.0
22/01:00pm 14.2 10.2 6.8 61 3.6 SSW 17 22 9 12 1023.1 1023.1 0.0
22/12:30pm 14.1 9.6 6.9 62 3.5 SSW 20 24 11 13 1023.5 - 0.0
22/12:00pm 14.0 9.6 7.5 65 3.2 SW 20 26 11 14 1023.9 1023.9 0.0
22/11:30am 13.8 9.5 8.0 68 2.9 SW 20 26 11 14 1024.4 - 0.0
22/11:00am 13.2 9.2 8.1 71 2.5 SSW 19 24 10 13 1024.7 1024.7 0.0
22/10:30am 12.8 8.0 7.5 70 2.6 SSW 22 28 12 15 1025.1 - 0.0
22/10:00am 12.4 7.7 7.7 73 2.3 SSW 22 26 12 14 1025.1 1025.1 0.0
22/09:30am 12.0 7.9 7.7 75 2.1 SSW 19 22 10 12 1025.2 - 0.0
22/09:00am 12.1 8.0 8.0 76 2.0 SW 19 24 10 13 1024.9 1024.9 0.0
22/08:30am 11.7 7.5 7.6 76 2.0 SW 19 22 10 12 1024.8 - 0.0
22/08:00am 10.9 7.2 8.1 83 1.4 SW 17 22 9 12 1024.5 1024.5 0.0
22/07:30am 10.9 7.3 8.5 85 1.2 SW 17 20 9 11 1024.2 - 0.0
22/07:00am 10.5 7.6 8.3 86 1.1 SW 13 17 7 9 1023.9 1023.9 0.0
22/06:30am 10.4 7.9 8.0 85 1.2 SW 11 15 6 8 1023.7 - 0.0
22/06:00am 10.4 7.9 8.3 87 1.0 SW 11 15 6 8 1023.5 1023.5 0.0
22/05:30am 10.5 8.0 8.3 86 1.1 SW 11 13 6 7 1023.4 - 0.0
22/05:00am 10.7 8.7 8.5 86 1.1 WSW 9 11 5 6 1023.3 1023.3 0.0
22/04:30am 10.8 8.4 8.6 86 1.1 SW 11 15 6 8 1023.2 - 0.0
22/04:00am 10.7 7.9 8.5 86 1.1 SW 13 15 7 8 1023.1 1023.1 0.0
22/03:30am 10.8 7.7 8.7 87 1.0 SSW 15 19 8 10 1023.2 - 0.0
22/03:00am 11.2 8.5 8.8 85 1.2 SSW 13 15 7 8 1023.2 1023.2 0.0
22/02:30am 11.3 8.9 8.7 84 1.3 SSW 11 13 6 7 1023.3 - 0.0
22/02:00am 11.1 9.1 8.5 84 1.3 S 9 11 5 6 1023.5 1023.5 0.0
22/01:30am 11.3 9.7 8.7 84 1.3 SSW 7 9 4 5 1023.6 - 0.0
22/01:00am 11.4 10.4 8.8 84 1.3 SW 4 7 2 4 1023.7 1023.7 0.0
22/12:30am 11.6 9.6 8.6 82 1.5 WSW 9 11 5 6 1023.7 - 0.0
22/12:00am 11.5 9.4 8.4 81 1.5 WSW 9 11 5 6 1023.9 1023.9 0.0
 
Date/Time
EST
Tmp

°C
App
Tmp
°C
Dew
Point
°C
Rel
Hum
%
Delta-T

°C
Wind Press
QNH
hPa
Press
MSL
hPa
Rain
since
9 am
mm
Dir
 
Spd
km/h
Gust
km/h
Spd
kts
Gust
kts
21/11:30pm 11.8 9.4 8.5 80 1.6 WSW 11 13 6 7 1024.2 - 0.0
21/11:00pm 12.0 8.8 8.5 79 1.7 SW 15 20 8 11 1024.3 1024.3 0.0
21/10:30pm 12.3 8.3 8.2 76 2.0 SW 19 20 10 11 1024.3 - 0.0
21/10:00pm 12.4 8.8 8.3 76 2.0 SW 17 19 9 10 1024.5 1024.5 0.0
21/09:30pm 12.3 8.7 8.2 76 2.0 SW 17 20 9 11 1024.6 - 0.0
21/09:00pm 12.2 8.3 8.7 79 1.7 SW 19 20 10 11 1024.7 1024.7 0.0
21/08:30pm 12.2 9.0 8.5 78 1.8 SW 15 17 8 9 1024.7 - 0.0
21/08:00pm 12.4 9.6 8.7 78 1.8 WSW 13 15 7 8 1024.6 1024.6 0.0
21/07:30pm 12.4 10.0 8.7 78 1.8 WSW 11 15 6 8 1024.5 - 0.0
21/07:00pm 12.4 10.0 8.5 77 1.9 SW 11 15 6 8 1024.4 1024.4 0.0
21/06:30pm 12.5 10.4 8.4 76 2.0 SW 9 13 5 7 1024.2 - 0.0
21/06:00pm 12.7 10.6 8.4 75 2.1 SW 9 11 5 6 1024.0 1024.0 0.0
21/05:30pm 12.7 10.9 8.0 73 2.3 SW 7 9 4 5 1023.8 - 0.0
21/05:00pm 13.1 11.5 7.8 70 2.6 S 6 7 3 4 1023.5 1023.5 0.0
21/04:30pm 13.5 12.6 7.7 68 2.9 E 2 6 1 3 1023.5 - 0.0
21/04:00pm 13.6 11.9 7.6 67 2.9 E 6 7 3 4 1023.5 1023.5 0.0
21/03:30pm 13.3 12.5 8.0 70 2.6 ESE 2 4 1 2 1023.4 - 0.0
21/03:00pm 13.3 12.1 8.2 71 2.5 ESE 4 6 2 3 1023.4 1023.4 0.0
21/02:30pm 13.7 12.1 8.1 69 2.8 E 6 7 3 4 1023.4 - 0.0
21/02:00pm 14.0 12.4 8.0 67 3.0 ESE 6 9 3 5 1023.5 1023.5 0.0
21/01:30pm 13.3 11.5 7.1 66 3.0 E 6 9 3 5 1023.8 - 0.0
21/01:00pm 14.0 12.3 7.5 65 3.2 E 6 7 3 4 1024.0 1024.0 0.0
21/12:30pm 13.3 11.4 6.9 65 3.1 ESE 6 9 3 5 1024.5 - 0.0
21/12:00pm 13.1 11.2 6.5 64 3.1 SSE 6 9 3 5 1025.0 1025.0 0.0
21/11:30am 14.0 12.1 6.6 61 3.6 SW 6 9 3 5 1025.5 - 0.0
21/11:00am 13.4 11.3 6.7 64 3.2 SW 7 11 4 6 1025.9 1025.9 0.0
21/10:30am 13.4 11.0 7.0 65 3.1 SSW 9 15 5 8 1026.1 - 0.0
21/10:00am 12.9 10.3 6.3 64 3.1 SW 9 13 5 7 1026.4 1026.4 0.0
21/09:30am 12.8 10.0 7.0 68 2.8 SW 11 15 6 8 1026.5 - 0.0
21/09:00am 11.8 8.8 7.5 75 2.1 WSW 13 15 7 8 1026.5 1026.5 0.0
21/08:30am 11.6 8.9 7.5 76 2.0 SW 11 15 6 8 1026.5 - 0.0
21/08:00am 10.4 7.4 7.5 82 1.4 SW 13 15 7 8 1026.4 1026.4 0.0
21/07:30am 9.6 6.5 7.4 86 1.0 SSW 13 15 7 8 1026.3 - 0.0
21/07:00am 9.8 7.1 7.2 84 1.2 SW 11 13 6 7 1026.1 1026.1 0.0
21/06:30am 10.1 7.0 7.2 82 1.4 WSW 13 15 7 8 1026.0 - 0.0
21/06:00am 10.1 6.8 6.6 79 1.6 SW 13 17 7 9 1025.9 1025.9 0.0
21/05:30am 10.1 7.7 6.8 80 1.6 SSW 9 13 5 7 1025.8 - 0.0
21/05:00am 9.8 8.3 6.7 81 1.4 SSW 4 7 2 4 1025.5 1025.5 0.0
21/04:30am 9.6 7.1 6.5 81 1.4 WSW 9 11 5 6 1025.5 - 0.0
21/04:00am 10.0 7.2 7.1 82 1.4 W 11 15 6 8 1025.2 1025.2 0.0
21/03:30am 10.4 6.5 6.9 79 1.7 SW 17 19 9 10 1025.4 - 0.0
21/03:00am 10.8 7.3 7.3 79 1.7 SW 15 19 8 10 1025.5 1025.5 0.0
21/02:30am 11.1 7.9 7.0 76 2.0 SW 13 17 7 9 1025.8 - 0.0
21/02:00am 11.1 7.9 6.8 75 2.0 SW 13 17 7 9 1025.9 1025.9 0.0
21/01:30am 10.8 7.9 6.7 76 1.9 SW 11 15 6 8 1026.0 - 0.0
21/01:00am 10.9 7.3 6.8 76 1.9 W 15 17 8 9 1025.9 1025.9 0.0
21/12:30am 11.6 7.1 7.1 74 2.2 SW 20 22 11 12 1025.9 - 0.0
21/12:00am 11.5 7.6 7.2 75 2.1 SW 17 19 9 10 1026.1 1026.1 0.0
 
Date/Time
EST
Tmp

°C
App
Tmp
°C
Dew
Point
°C
Rel
Hum
%
Delta-T

°C
Wind Press
QNH
hPa
Press
MSL
hPa
Rain
since
9 am
mm
Dir
 
Spd
km/h
Gust
km/h
Spd
kts
Gust
kts
20/11:30pm 11.5 7.6 7.0 74 2.2 SW 17 19 9 10 1026.3 - 0.0
20/11:00pm 12.2 8.2 6.7 69 2.6 SSW 17 20 9 11 1026.3 1026.3 0.0
20/10:30pm 12.2 8.3 6.9 70 2.5 SSW 17 22 9 12 1026.3 - 0.0
20/10:00pm 12.1 7.7 7.6 74 2.2 SW 20 24 11 13 1026.2 1026.2 0.0
20/09:30pm 12.1 8.4 7.8 75 2.1 SW 17 20 9 11 1026.4 - 0.0
20/09:00pm 12.4 9.5 8.3 76 2.0 SW 13 24 7 13 1026.3 1026.3 0.0
20/08:30pm 12.7 10.6 8.4 75 2.1 WSW 9 11 5 6 1026.4 - 0.0
20/08:00pm 13.1 10.1 5.8 61 3.4 S 11 17 6 9 1026.4 1026.4 0.0
20/07:30pm 13.4 10.8 6.3 62 3.4 SSE 9 13 5 7 1026.3 - 0.0
20/07:00pm 13.4 11.2 6.0 61 3.5 SSE 7 9 4 5 1026.2 1026.2 0.0
20/06:30pm 13.5 10.6 6.4 62 3.4 SE 11 15 6 8 1026.0 - 0.0
20/06:00pm 13.3 10.2 5.7 60 3.6 SE 11 13 6 7 1025.7 1025.7 0.0
20/05:30pm 13.0 10.9 5.7 61 3.4 S 6 9 3 5 1025.5 - 0.0
20/05:00pm 13.0 10.8 5.2 59 3.6 S 6 7 3 4 1025.4 1025.4 0.0
20/04:30pm 13.3 11.0 5.5 59 3.7 S 7 11 4 6 1025.4 - 0.0
20/04:00pm 13.5 10.1 5.9 60 3.6 S 13 15 7 8 1025.4 1025.4 0.0
20/03:30pm 14.3 11.2 5.4 55 4.2 S 11 15 6 8 1025.3 - 0.0
20/03:00pm 15.3 11.9 5.8 53 4.5 SW 13 17 7 9 1025.3 1025.3 0.0
20/02:30pm 14.8 10.9 5.3 53 4.5 SW 15 19 8 10 1025.3 - 0.0
20/02:00pm 14.9 11.0 5.4 53 4.5 SW 15 19 8 10 1025.4 1025.4 0.0
20/01:30pm 14.8 10.5 5.1 52 4.6 SW 17 24 9 13 1025.4 - 0.0
20/01:00pm 14.5 9.5 4.8 52 4.5 SSW 20 26 11 14 1025.6 1025.6 0.0
20/12:30pm 14.9 9.2 4.9 51 4.7 SW 24 32 13 17 1025.8 - 0.0
20/12:00pm 14.6 8.5 4.9 52 4.5 SW 26 33 14 18 1026.3 1026.3 0.0
20/11:30am 14.5 8.0 4.5 51 4.6 SW 28 35 15 19 1026.5 - 0.0
20/11:00am 15.0 9.3 5.0 51 4.7 WSW 24 32 13 17 1026.8 1026.8 0.0
20/10:30am 14.0 9.0 4.6 53 4.4 W 20 26 11 14 1026.9 - 0.0
20/10:00am 13.0 7.3 4.9 58 3.7 W 24 30 13 16 1027.0 1027.0 0.0
20/09:30am 12.8 7.1 5.0 59 3.6 W 24 35 13 19 1027.1 - 0.0
20/09:00am 12.4 4.3 3.4 54 4.0 WSW 35 43 19 23 1026.6 1026.6 0.0
20/08:30am 12.4 3.4 4.4 58 3.6 WSW 41 48 22 26 1026.5 - 0.0
20/08:00am 11.5 2.3 3.5 58 3.5 WSW 41 50 22 27 1026.2 1026.2 0.0
20/07:30am 10.7 1.0 4.0 63 3.0 WSW 44 54 24 29 1025.8 - 0.0
20/07:00am 10.4 1.0 4.3 66 2.7 WSW 43 52 23 28 1025.7 1025.7 0.0
20/06:30am 10.4 0.3 3.9 64 2.9 SW 46 56 25 30 1025.4 - 0.0
20/06:00am 10.5 1.0 3.8 63 2.9 WSW 43 50 23 27 1025.2 1025.2 0.0
20/05:30am 10.7 2.8 4.6 66 2.7 SW 35 43 19 23 1025.2 - 0.0
20/05:00am 10.5 3.7 4.9 68 2.5 SW 30 37 16 20 1025.0 1025.0 0.0
20/04:30am 10.8 3.5 4.7 66 2.8 SW 32 39 17 21 1025.2 - 0.0
20/04:00am 10.9 2.7 4.6 65 2.8 SW 37 44 20 24 1025.0 1025.0 0.0
20/03:30am 11.0 2.8 4.5 64 2.9 SW 37 44 20 24 1025.1 - 0.0
20/03:00am 10.9 2.7 4.6 65 2.8 SW 37 46 20 25 1025.2 1025.2 0.0
20/02:30am 11.1 2.6 5.2 67 2.7 SW 39 46 21 25 1025.2 - 0.0
20/02:00am 11.0 1.6 4.5 64 2.9 SW 43 50 23 27 1025.0 1025.0 0.0
20/01:30am 11.3 1.9 5.4 67 2.7 SW 44 56 24 30 1024.9 - 0.0
20/01:00am 11.3 1.1 5.2 66 2.8 SW 48 59 26 32 1024.8 1024.8 0.0
20/12:30am 11.1 0.9 5.0 66 2.8 SW 48 57 26 31 1024.9 - 0.0
20/12:00am 11.1 1.7 4.6 64 2.9 SW 43 52 23 28 1025.1 1025.1 0.0
 
Date/Time
EST
Tmp

°C
App
Tmp
°C
Dew
Point
°C
Rel
Hum
%
Delta-T

°C
Wind Press
QNH
hPa
Press
MSL
hPa
Rain
since
9 am
mm
Dir
 
Spd
km/h
Gust
km/h
Spd
kts
Gust
kts
19/11:30pm 11.5 2.1 5.2 65 2.9 SW 44 56 24 30 1025.2 - 0.0

Latest Capital City Observations: Canberra | Sydney | Melbourne | Brisbane | Adelaide | Perth | Hobart | Darwin

Other Formats:

Comma delimited format used in spreadsheet applications
http://www.bom.gov.au/fwo/IDN60903/IDN60903.94939.axf

JavaScript Object Notation format (JSON) in row-major order
http://www.bom.gov.au/fwo/IDN60903/IDN60903.94939.json